Time;durP1;ratioP1;P1;durP2;ratioP2;P2;SDS_P1;SDS_P2;PMS_P1;PMS_P2;Temp;Humidity;BMP_temperature;BMP_pressure;BME280_temperature;BME280_humidity;BME280_pressure;Samples;Min_cycle;Max_cycle;Signal;HPM_P1;HPM_P2
2022/02/04 00:21:53;;;;;;;;;11.75;11.00;;;;;11.66;61.53;101323.28;4869022;29;45591;-75
2022/02/04 00:24:20;;;;;;;;;15.25;11.75;;;;;11.62;61.62;101318.94;4876321;29;45497;-75
2022/02/04 00:26:53;;;;;;;;;13.00;12.50;;;;;11.60;61.43;101313.66;4877762;29;45619;-75
2022/02/04 00:29:31;;;;;;;;;12.50;11.00;;;;;11.63;61.30;101321.59;4886068;29;45443;-75
2022/02/04 00:32:03;;;;;;;;;13.00;12.00;;;;;11.62;61.33;101316.28;4875803;29;45338;-75
2022/02/04 00:34:36;;;;;;;;;14.00;13.00;;;;;11.58;61.34;101301.25;4886769;29;45389;-75
2022/02/04 00:39:34;;;;;;;;;15.50;12.50;;;;;11.66;61.50;101317.94;4886425;29;46033;-75
2022/02/04 00:42:05;;;;;;;;;11.25;10.25;;;;;11.63;61.29;101307.34;4877196;29;45345;-75
2022/02/04 00:44:31;;;;;;;;;12.00;12.00;;;;;11.63;61.65;101300.19;4901239;29;45296;-75
2022/02/04 00:47:09;;;;;;;;;14.75;13.00;;;;;11.67;61.39;101300.97;4884440;29;45435;-75
2022/02/04 00:52:20;;;;;;;;;11.50;10.25;;;;;11.64;61.59;101293.03;4874201;29;45637;-75
2022/02/04 00:54:59;;;;;;;;;12.75;12.00;;;;;11.64;61.70;101293.94;4885654;29;45320;-75
2022/02/04 01:13:15;;;;;;;;;13.50;12.50;;;;;11.67;61.75;101300.97;4885165;29;45487;-76
2022/02/04 01:27:55;;;;;;;;;14.25;11.75;;;;;11.60;61.63;101315.44;4878063;29;45673;-75
2022/02/04 01:30:26;;;;;;;;;12.75;12.25;;;;;11.62;61.67;101310.94;4881701;29;45528;-75
2022/02/04 01:32:52;;;;;;;;;11.25;11.00;;;;;11.60;61.56;101297.59;4884837;29;46321;-75
2022/02/04 01:35:17;;;;;;;;;15.00;14.00;;;;;11.63;61.70;101307.34;4886039;29;45232;-75
2022/02/04 01:37:42;;;;;;;;;12.50;11.75;;;;;11.63;61.56;101302.88;4878777;29;45359;-75
2022/02/04 01:40:08;;;;;;;;;13.25;12.50;;;;;11.63;61.75;101310.88;4885569;29;45317;-75
2022/02/04 01:42:34;;;;;;;;;15.75;11.75;;;;;11.66;61.45;101313.47;4883933;29;45744;-75
2022/02/04 01:44:59;;;;;;;;;14.50;12.50;;;;;11.60;61.68;101304.75;4876655;29;45328;-75
2022/02/04 01:47:24;;;;;;;;;16.00;14.25;;;;;11.64;61.78;101301.97;4882938;29;45454;-75
2022/02/04 01:49:50;;;;;;;;;14.00;11.75;;;;;11.64;61.75;101301.97;4883102;29;45453;-75
2022/02/04 01:52:15;;;;;;;;;10.50;10.50;;;;;11.63;61.99;101296.66;4872560;29;45325;-75
2022/02/04 01:54:40;;;;;;;;;14.25;11.75;;;;;11.63;61.90;101302.88;4874077;29;45292;-75
2022/02/04 01:57:06;;;;;;;;;12.00;11.25;;;;;11.57;61.65;101295.00;4895193;29;45593;-75
2022/02/04 01:59:31;;;;;;;;;14.75;13.75;;;;;11.54;61.63;101280.84;4882500;29;45480;-75
2022/02/04 02:01:56;;;;;;;;;16.25;11.00;;;;;11.58;61.49;101295.91;4877301;29;45992;-75
2022/02/04 02:04:22;;;;;;;;;13.00;12.00;;;;;11.59;61.46;101289.63;4885632;29;45146;-75
2022/02/04 02:06:55;;;;;;;;;17.25;13.00;;;;;11.64;61.71;101298.38;4877533;29;45462;-75
2022/02/04 02:09:26;;;;;;;;;13.75;11.50;;;;;11.61;61.73;101303.81;4885142;29;45308;-75
2022/02/04 02:11:56;;;;;;;;;14.50;13.00;;;;;11.59;61.99;101297.63;4884823;29;45487;-75
2022/02/04 02:14:25;;;;;;;;;12.75;10.50;;;;;11.60;62.00;101297.59;4885346;29;45423;-75
2022/02/04 02:42:06;;;;;;;;;7.00;7.00;;;;;11.48;62.65;101265.88;4884219;29;45403;-75
2022/02/04 02:59:49;;;;;;;;;10.75;10.50;;;;;11.49;62.76;101265.84;4884609;29;45300;-75
2022/02/04 03:02:15;;;;;;;;;10.75;10.25;;;;;11.38;62.55;101248.34;4898669;29;45475;-75
2022/02/04 03:04:40;;;;;;;;;7.75;7.75;;;;;11.43;62.70;101254.44;4884656;29;45280;-75
2022/02/04 03:07:05;;;;;;;;;10.25;10.25;;;;;11.40;63.21;101247.34;4884154;29;45252;-75
2022/02/04 03:09:31;;;;;;;;;10.25;9.50;;;;;11.44;62.81;101249.03;4884468;29;45418;-75
2022/02/04 03:11:56;;;;;;;;;11.75;10.25;;;;;11.39;63.35;101242.91;4881191;29;45459;-75
2022/02/04 03:14:21;;;;;;;;;8.25;8.25;;;;;11.41;63.04;101248.22;4884174;29;45637;-75
2022/02/04 03:16:47;;;;;;;;;7.00;7.00;;;;;11.42;63.30;101247.31;4881063;29;45276;-75
2022/02/04 03:19:13;;;;;;;;;9.50;6.75;;;;;11.39;63.45;101239.38;4884309;29;45327;-75
2022/02/04 03:21:41;;;;;;;;;12.75;10.00;;;;;11.39;63.36;101240.25;4880092;29;45450;-75
2022/02/04 03:24:12;;;;;;;;;8.00;8.00;;;;;11.39;62.95;101234.91;4881786;29;45321;-75
2022/02/04 03:29:09;;;;;;;;;8.75;8.50;;;;;11.38;63.46;101232.31;4883996;29;45535;-75
2022/02/04 03:31:42;;;;;;;;;9.75;9.75;;;;;11.38;63.61;101226.94;4884398;29;45329;-75
2022/02/04 03:34:08;;;;;;;;;6.00;6.00;;;;;11.33;63.39;101224.41;4884614;29;45315;-75
2022/02/04 03:36:35;;;;;;;;;7.25;7.25;;;;;11.26;63.38;101210.34;4884094;29;45282;-75
2022/02/04 03:39:00;;;;;;;;;9.25;7.00;;;;;11.25;63.87;101205.91;4884374;29;45472;-75
2022/02/04 03:41:25;;;;;;;;;9.50;7.00;;;;;11.36;63.48;101232.34;4883556;29;45410;-75
2022/02/04 03:43:51;;;;;;;;;10.00;9.00;;;;;11.30;63.42;101225.34;4883683;29;46037;-75
2022/02/04 03:46:16;;;;;;;;;9.75;6.00;;;;;11.35;63.72;101227.91;4875725;29;45314;-75
2022/02/04 03:48:41;;;;;;;;;12.25;11.50;;;;;11.28;63.32;101215.63;4877433;29;45302;-75
2022/02/04 03:51:06;;;;;;;;;10.00;9.00;;;;;11.32;63.70;101223.50;4882450;29;45492;-75
2022/02/04 03:53:32;;;;;;;;;10.25;9.25;;;;;11.29;63.60;101223.63;4877124;29;45366;-75
2022/02/04 03:55:58;;;;;;;;;10.25;10.00;;;;;11.30;63.45;101211.97;4876195;29;45331;-75
2022/02/04 03:58:24;;;;;;;;;10.75;9.75;;;;;11.31;63.86;101216.44;4882885;29;45357;-75
2022/02/04 04:00:49;;;;;;;;;10.75;10.00;;;;;11.34;63.85;101227.94;4883770;29;45630;-76
2022/02/04 04:03:15;;;;;;;;;9.00;9.00;;;;;11.34;64.02;101223.47;4884078;29;46081;-75
2022/02/04 04:05:47;;;;;;;;;16.00;12.00;;;;;11.30;63.38;101216.47;4875299;29;45220;-75
2022/02/04 04:08:14;;;;;;;;;14.50;13.25;;;;;11.32;63.60;101227.97;4878225;29;45319;-75
2022/02/04 04:10:41;;;;;;;;;13.00;12.00;;;;;11.32;63.35;101222.63;4883676;29;45671;-75
2022/02/04 04:13:08;;;;;;;;;16.25;13.75;;;;;11.31;64.14;101229.78;4884739;29;46128;-75
2022/02/04 04:15:33;;;;;;;;;15.00;12.75;;;;;11.31;63.54;101228.91;4895459;29;45825;-75
2022/02/04 04:17:59;;;;;;;;;13.25;12.50;;;;;11.26;63.56;101215.69;4899973;28;45422;-75
2022/02/04 04:20:26;;;;;;;;;14.00;11.00;;;;;11.21;63.54;101206.00;4889270;28;45333;-75
2022/02/04 04:22:54;;;;;;;;;11.25;10.75;;;;;11.30;63.54;101227.16;4896351;28;45561;-75
2022/02/04 04:25:20;;;;;;;;;12.25;12.25;;;;;11.22;63.70;101207.78;4880652;29;45718;-75
2022/02/04 04:27:46;;;;;;;;;16.00;12.75;;;;;11.27;64.20;101214.75;4879783;29;45404;-75
2022/02/04 04:30:15;;;;;;;;;18.75;14.25;;;;;11.26;63.76;101210.34;4875958;29;45611;-75
2022/02/04 04:32:41;;;;;;;;;20.00;15.25;;;;;11.22;63.74;101199.75;4876189;29;45321;-75
2022/02/04 04:35:11;;;;;;;;;12.75;12.00;;;;;11.26;63.91;101213.00;4883472;29;45583;-76
2022/02/04 04:37:41;;;;;;;;;12.50;11.00;;;;;11.24;64.08;101208.59;4884789;29;45381;-75
2022/02/04 05:26:36;;;;;;;;;14.75;13.50;;;;;11.24;64.29;101189.91;4885821;29;45734;-75
2022/02/04 05:29:09;;;;;;;;;14.50;13.75;;;;;11.20;64.97;101186.44;4891188;29;45423;-75
2022/02/04 05:31:34;;;;;;;;;16.50;16.25;;;;;11.27;64.49;101197.84;4883936;29;45282;-75
2022/02/04 05:34:00;;;;;;;;;19.25;18.25;;;;;11.28;64.63;101192.44;4885608;29;45593;-75
2022/02/04 05:36:25;;;;;;;;;21.75;19.00;;;;;11.23;64.59;101180.16;4884934;29;45296;-75
2022/02/04 05:38:53;;;;;;;;;19.50;17.00;;;;;11.27;64.74;101192.50;4880702;29;45279;-75
2022/02/04 05:41:25;;;;;;;;;19.75;16.75;;;;;11.20;64.60;101170.41;4885107;29;45353;-75
2022/02/04 05:43:52;;;;;;;;;22.50;19.50;;;;;11.26;64.50;101186.28;4881928;29;45426;-75
2022/02/04 05:46:24;;;;;;;;;20.00;19.00;;;;;11.25;64.51;101186.31;4871896;29;45969;-75
2022/02/04 05:48:52;;;;;;;;;21.75;18.00;;;;;11.20;64.81;101170.41;4873873;29;45238;-74
2022/02/04 05:54:01;;;;;;;;;17.00;17.00;;;;;11.27;64.90;101176.47;4876734;29;45686;-75
2022/02/04 06:04:03;;;;;;;;;17.50;14.50;;;;;11.26;64.30;101159.56;4875097;29;46630;-75
2022/02/04 06:22:39;;;;;;;;;17.75;17.75;;;;;11.30;64.58;101187.06;4879123;29;45452;-75
2022/02/04 06:25:07;;;;;;;;;19.75;16.25;;;;;11.31;64.51;101191.50;4883605;29;45471;-75
2022/02/04 06:27:34;;;;;;;;;15.25;14.75;;;;;11.32;64.55;101187.88;4884155;29;45672;-75
2022/02/04 06:30:00;;;;;;;;;19.75;18.75;;;;;11.30;64.91;101184.38;4885143;29;45579;-75
2022/02/04 06:32:26;;;;;;;;;16.00;14.25;;;;;11.27;64.61;101174.66;4880062;29;45448;-75
2022/02/04 06:34:51;;;;;;;;;20.25;17.75;;;;;11.29;64.58;101175.50;4882466;29;45282;-75
2022/02/04 06:37:17;;;;;;;;;20.25;18.00;;;;;11.23;64.59;101164.97;4878255;29;47028;-75
2022/02/04 06:39:43;;;;;;;;;20.50;18.75;;;;;11.26;64.49;101174.69;4884867;29;45261;-73
2022/02/04 06:42:09;;;;;;;;;13.50;13.00;;;;;11.27;64.96;101169.31;4882104;29;45635;-72
2022/02/04 06:44:36;;;;;;;;;20.75;17.75;;;;;11.26;65.20;101170.25;4880196;29;45293;-72
2022/02/04 06:47:02;;;;;;;;;18.00;15.75;;;;;11.22;64.79;101163.22;4880515;29;46361;-73
2022/02/04 06:49:27;;;;;;;;;19.50;14.25;;;;;11.26;64.88;101172.91;4879891;29;45367;-73
2022/02/04 06:51:53;;;;;;;;;16.50;16.25;;;;;11.26;64.77;101159.56;4880543;29;45456;-67
2022/02/04 06:54:18;;;;;;;;;16.25;13.75;;;;;11.19;64.56;101151.75;4897121;29;45440;-74
2022/02/04 06:56:44;;;;;;;;;18.00;15.75;;;;;11.18;64.83;101158.91;4883162;29;47477;-74
2022/02/04 06:59:09;;;;;;;;;20.75;19.00;;;;;11.23;65.20;101170.31;4898588;29;45948;-74
2022/02/04 07:01:34;;;;;;;;;18.00;16.00;;;;;11.20;65.10;101151.69;4882910;29;45358;-77
2022/02/04 07:04:05;;;;;;;;;15.75;15.50;;;;;11.29;65.31;101167.50;4883031;29;45268;-77
2022/02/04 07:06:36;;;;;;;;;16.50;16.00;;;;;11.26;65.48;101159.56;4892458;29;46410;-77
2022/02/04 07:09:15;;;;;;;;;17.75;17.75;;;;;11.25;65.42;101164.94;4890594;28;45462;-77
2022/02/04 07:14:18;;;;;;;;;18.75;16.75;;;;;11.25;65.39;101162.28;4876892;29;45605;-87
2022/02/04 07:21:53;;;;;;;;;21.25;18.50;;;;;11.26;65.50;101158.66;4883782;29;45398;-71
2022/02/04 07:24:18;;;;;;;;;13.50;11.00;;;;;11.24;64.74;101155.16;4880157;29;45458;-73
2022/02/04 07:26:43;;;;;;;;;17.25;15.75;;;;;11.24;65.41;101152.50;4875367;29;45498;-75
2022/02/04 07:29:09;;;;;;;;;17.75;14.75;;;;;11.22;65.15;101149.84;4879584;29;45705;-77
2022/02/04 07:31:38;;;;;;;;;19.00;14.75;;;;;11.23;65.66;101161.44;4880383;29;45601;-70
2022/02/04 07:41:46;;;;;;;;;17.50;14.50;;;;;11.20;65.97;101148.16;4884969;29;45299;-71
2022/02/04 07:44:12;;;;;;;;;16.50;16.50;;;;;11.25;65.95;101151.56;4883945;29;45252;-71
2022/02/04 07:46:39;;;;;;;;;15.00;14.25;;;;;11.24;65.73;101149.81;4880698;29;46303;-71
2022/02/04 07:49:06;;;;;;;;;16.00;15.50;;;;;11.20;65.78;101137.47;4899014;28;45740;-71
2022/02/04 07:51:32;;;;;;;;;21.25;18.00;;;;;11.30;65.80;101155.00;4884634;29;45353;-71
2022/02/04 07:53:58;;;;;;;;;20.50;15.25;;;;;11.30;65.77;101152.31;4884230;29;45548;-71
2022/02/04 07:56:24;;;;;;;;;20.50;15.75;;;;;11.20;65.99;101138.34;4884981;29;51064;-71
2022/02/04 07:58:58;;;;;;;;;14.25;13.50;;;;;11.29;66.00;101148.78;4882769;29;45691;-71
2022/02/04 08:01:29;;;;;;;;;16.00;16.00;;;;;11.29;65.86;101140.75;4883722;29;45511;-71
2022/02/04 08:04:01;;;;;;;;;16.25;14.75;;;;;11.31;66.07;101143.41;4880563;29;45391;-71
2022/02/04 08:06:29;;;;;;;;;17.00;15.25;;;;;11.29;65.98;101139.88;4889456;29;46464;-69
2022/02/04 08:22:21;;;;;;;;;16.75;14.25;;;;;11.32;66.00;101146.00;4878184;29;45605;-75
2022/02/04 08:25:13;;;;;;;;;15.50;14.00;;;;;11.37;66.03;101151.22;4879774;29;45527;-75
2022/02/04 08:28:07;;;;;;;;;15.25;12.75;;;;;11.33;65.94;101138.88;4876878;29;47055;-75
2022/02/04 08:49:39;;;;;;;;;14.25;14.00;;;;;11.37;65.92;101145.88;4863296;29;45514;-75
2022/02/04 08:52:32;;;;;;;;;17.25;15.00;;;;;11.43;66.32;101155.53;4874767;29;45440;-72
2022/02/04 08:55:18;;;;;;;;;15.50;13.00;;;;;11.38;65.93;101150.31;4883718;29;45537;-76
2022/02/04 09:00:55;;;;;;;;;14.75;13.25;;;;;11.49;65.81;101145.53;4845270;29;46733;-75
2022/02/04 09:06:22;;;;;;;;;13.25;11.25;;;;;11.52;65.64;101138.31;4867579;29;45400;-75
2022/02/04 09:08:52;;;;;;;;;13.75;11.75;;;;;11.46;65.54;101134.91;4876915;29;45496;-74
2022/02/04 09:11:37;;;;;;;;;14.50;14.00;;;;;11.52;65.60;101133.84;4884673;29;45420;-74
2022/02/04 09:17:31;;;;;;;;;11.50;11.50;;;;;11.55;65.29;101136.44;4845908;29;45426;-73
2022/02/04 09:22:38;;;;;;;;;15.50;13.25;;;;;11.58;65.38;101127.47;4864799;29;45708;-73
2022/02/04 09:25:05;;;;;;;;;12.00;11.50;;;;;11.63;65.21;101122.84;4891319;29;46629;-71
2022/02/04 09:27:30;;;;;;;;;14.25;12.00;;;;;11.59;64.93;101123.84;4883615;29;45450;-71
2022/02/04 09:29:56;;;;;;;;;15.50;12.25;;;;;11.59;65.14;101119.34;4883231;29;45420;-71
2022/02/04 09:32:21;;;;;;;;;13.50;12.75;;;;;11.62;65.51;101129.09;4882314;29;46191;-71
2022/02/04 09:34:47;;;;;;;;;13.00;10.75;;;;;11.62;65.27;101127.28;4884105;29;45518;-71
2022/02/04 09:37:12;;;;;;;;;12.50;11.75;;;;;11.65;65.41;101129.00;4879321;29;45408;-71
2022/02/04 09:39:38;;;;;;;;;12.50;12.50;;;;;11.59;65.22;101114.00;4875785;29;45376;-71
2022/02/04 09:42:03;;;;;;;;;10.75;9.75;;;;;11.66;65.37;101117.38;4880692;29;46009;-72
2022/02/04 09:44:28;;;;;;;;;12.75;10.00;;;;;11.69;64.78;101114.59;4878308;29;45488;-72
2022/02/04 09:46:55;;;;;;;;;13.50;11.00;;;;;11.70;65.00;101123.53;4892938;29;45462;-74
2022/02/04 09:49:28;;;;;;;;;15.75;14.00;;;;;11.73;65.06;101129.66;4875562;29;45385;-74
2022/02/04 10:08:33;;;;;;;;;11.25;11.00;;;;;11.79;65.39;101116.06;4881209;29;45677;-67
2022/02/04 10:12:03;;;;;;;;;8.00;7.00;;;;;11.80;65.06;101123.19;4883738;28;45375;-67
2022/02/04 10:14:25;;;;;;;;;12.00;12.00;;;;;11.80;65.35;101127.66;4873795;29;45522;-67
2022/02/04 10:22:07;;;;;;;;;6.50;6.50;;;;;11.78;64.95;101109.00;4878790;29;45419;-68
2022/02/04 10:24:34;;;;;;;;;9.25;7.25;;;;;11.77;65.39;101101.88;4882558;29;45552;-67
2022/02/04 10:27:16;;;;;;;;;7.00;7.00;;;;;11.79;65.18;101105.38;4883028;29;45373;-67
2022/02/04 10:30:10;;;;;;;;;10.75;8.25;;;;;11.80;65.17;101104.47;4884286;29;45433;-66
2022/02/04 10:32:39;;;;;;;;;11.00;10.00;;;;;11.82;65.44;101102.59;4872675;29;45424;-67
2022/02/04 10:35:12;;;;;;;;;11.25;8.00;;;;;11.84;65.59;101095.44;4882376;29;47137;-67
2022/02/04 10:37:42;;;;;;;;;8.75;8.25;;;;;11.86;65.17;101098.91;4874596;29;46158;-67
2022/02/04 10:40:39;;;;;;;;;8.50;6.00;;;;;11.87;64.99;101086.41;4882397;29;45316;-67
2022/02/04 10:43:23;;;;;;;;;9.00;7.50;;;;;11.86;64.83;101084.66;4878751;29;45445;-67
2022/02/04 10:46:05;;;;;;;;;7.00;6.25;;;;;11.91;65.06;101095.22;4876111;29;45683;-67
2022/02/04 11:04:47;;;;;;;;;5.00;5.00;;;;;12.00;64.76;101086.94;4881151;29;45402;-67
2022/02/04 11:21:45;;;;;;;;;7.00;6.00;;;;;11.99;64.95;101071.78;4874739;29;45373;-66
2022/02/04 11:35:10;;;;;;;;;3.00;3.00;;;;;12.05;64.54;101061.75;4877782;29;45361;-66
2022/02/04 11:52:30;;;;;;;;;4.50;3.50;;;;;12.15;64.24;101038.25;4876615;29;45786;-65
2022/02/04 11:54:59;;;;;;;;;3.75;3.75;;;;;12.13;63.96;101023.16;4877325;29;45934;-66
2022/02/04 11:57:34;;;;;;;;;6.00;4.25;;;;;12.13;64.27;101009.78;4896522;28;45615;-66
2022/02/04 12:00:15;;;;;;;;;4.00;4.00;;;;;12.17;64.08;101006.94;4879133;29;45782;-66
2022/02/04 12:02:42;;;;;;;;;3.75;3.75;;;;;12.15;63.98;101007.94;4875323;29;45486;-66
2022/02/04 12:05:15;;;;;;;;;4.75;3.50;;;;;12.16;64.08;100994.50;4879399;29;45759;-66
2022/02/04 12:08:14;;;;;;;;;5.25;3.75;;;;;12.19;64.08;100988.16;4878445;29;45780;-66
2022/02/04 12:10:44;;;;;;;;;2.25;2.25;;;;;12.22;64.11;100977.34;4878103;29;45480;-68
2022/02/04 12:13:10;;;;;;;;;4.00;3.00;;;;;12.22;64.08;100978.22;4877747;29;45711;-66
2022/02/04 12:15:57;;;;;;;;;4.25;3.00;;;;;12.26;63.85;100978.13;4880385;29;45502;-66
2022/02/04 12:18:44;;;;;;;;;3.00;3.00;;;;;12.27;63.40;100971.84;4875004;29;45916;-66
2022/02/04 12:21:13;;;;;;;;;1.50;1.00;;;;;12.19;63.49;100948.03;4876055;29;45888;-65
2022/02/04 12:23:49;;;;;;;;;3.25;3.00;;;;;12.27;63.13;100961.13;4877888;29;45999;-66
2022/02/04 12:26:33;;;;;;;;;2.00;2.00;;;;;12.26;63.29;100960.25;4879191;29;45751;-66
2022/02/04 12:29:06;;;;;;;;;1.75;1.50;;;;;12.29;63.21;100948.56;4880490;29;45496;-65
2022/02/04 12:31:36;;;;;;;;;5.75;2.00;;;;;12.32;63.09;100935.06;4881978;29;45525;-65
2022/02/04 12:34:01;;;;;;;;;2.75;2.00;;;;;12.35;63.05;100935.84;4875932;29;45532;-65
2022/02/04 12:36:30;;;;;;;;;2.00;2.00;;;;;12.36;62.83;100942.94;4882146;29;45787;-66
2022/02/04 12:38:58;;;;;;;;;2.75;2.00;;;;;12.39;62.36;100925.88;4876516;29;45581;-65
2022/02/04 12:41:28;;;;;;;;;1.00;1.00;;;;;12.40;62.38;100924.97;4875057;29;45699;-65
2022/02/04 12:43:56;;;;;;;;;1.50;1.50;;;;;12.41;62.28;100919.56;4877864;29;45803;-65
2022/02/04 12:46:22;;;;;;;;;2.00;1.00;;;;;12.44;62.05;100898.94;4882582;29;45512;-66
2022/02/04 12:49:06;;;;;;;;;3.00;2.00;;;;;12.48;62.25;100904.13;4881295;29;45913;-66
2022/02/04 12:51:47;;;;;;;;;1.00;1.00;;;;;12.52;61.66;100899.53;4877290;29;45785;-67
2022/02/04 12:54:27;;;;;;;;;0.75;0.75;;;;;12.52;61.17;100900.41;4879332;29;46583;-68
2022/02/04 13:09:00;;;;;;;;;1.00;1.00;;;;;12.62;60.55;100887.53;4859369;29;45796;-73
2022/02/04 13:11:26;;;;;;;;;1.00;1.00;;;;;12.58;60.72;100892.13;4870200;29;45884;-73
2022/02/04 13:13:57;;;;;;;;;1.00;1.00;;;;;12.60;60.30;100879.56;4881488;29;45494;-73
2022/02/04 13:16:26;;;;;;;;;1.00;1.00;;;;;12.65;60.17;100883.88;4868622;29;46132;-72
2022/02/04 13:18:54;;;;;;;;;1.75;1.75;;;;;12.67;60.67;100876.66;4870719;29;45802;-72
2022/02/04 13:21:21;;;;;;;;;2.00;1.00;;;;;12.67;60.73;100871.28;4900068;29;45465;-72
2022/02/04 13:23:47;;;;;;;;;4.75;1.25;;;;;12.66;60.60;100870.41;4876261;29;45431;-72
2022/02/04 13:26:13;;;;;;;;;2.00;2.00;;;;;12.67;60.61;100856.09;4881893;29;45511;-72
2022/02/04 13:28:40;;;;;;;;;2.00;2.00;;;;;12.69;60.66;100866.75;4876946;29;45423;-72
2022/02/04 13:31:13;;;;;;;;;2.00;2.00;;;;;12.72;60.63;100871.97;4883337;29;45459;-72
2022/02/04 13:33:38;;;;;;;;;2.00;2.00;;;;;12.75;60.79;100880.78;4885996;29;45454;-72
2022/02/04 13:41:58;;;;;;;;;1.25;1.25;;;;;12.78;60.49;100871.75;4876633;29;45490;-72
2022/02/04 13:47:31;;;;;;;;;2.25;1.00;;;;;12.83;60.19;100888.50;4885296;29;45448;-72
2022/02/04 13:57:55;;;;;;;;;2.00;1.00;;;;;12.89;59.80;100895.44;4883743;29;46198;-71
2022/02/04 14:02:53;;;;;;;;;1.00;1.00;;;;;12.91;59.92;100902.47;4870572;29;45360;-71
2022/02/04 14:05:42;;;;;;;;;1.00;1.00;;;;;12.91;59.68;100894.44;4882150;29;45349;-70
2022/02/04 14:08:11;;;;;;;;;2.00;0.00;;;;;12.95;59.67;100900.56;4868500;29;45988;-70
2022/02/04 14:10:57;;;;;;;;;1.00;1.00;;;;;12.89;59.55;100882.88;4870305;29;45412;-70
2022/02/04 14:13:27;;;;;;;;;1.50;0.00;;;;;12.95;59.79;100898.72;4870306;29;45488;-71
2022/02/04 14:15:57;;;;;;;;;2.00;1.00;;;;;12.98;59.78;100912.00;4884263;29;45330;-68
2022/02/04 14:18:24;;;;;;;;;0.75;0.75;;;;;12.96;59.66;100899.59;4880132;29;48216;-69
2022/02/04 14:20:50;;;;;;;;;0.25;0.25;;;;;13.01;59.87;100902.97;4882903;29;45442;-69
2022/02/04 14:23:16;;;;;;;;;5.50;5.00;;;;;13.02;59.89;100911.91;4884416;29;45369;-70
2022/02/04 14:25:57;;;;;;;;;1.00;1.00;;;;;13.01;59.59;100911.00;4884329;29;45234;-69
2022/02/04 14:28:32;;;;;;;;;0.00;0.00;;;;;13.01;59.56;100902.09;4881986;29;45498;-70
2022/02/04 14:31:04;;;;;;;;;0.00;0.00;;;;;13.05;59.60;100915.31;4881728;29;45402;-71
2022/02/04 14:36:29;;;;;;;;;0.00;0.00;;;;;13.07;59.31;100931.34;4877660;29;46186;-70
2022/02/04 14:50:30;;;;;;;;;0.00;0.00;;;;;13.07;60.07;100947.41;4882307;29;45927;-70
2022/02/04 15:01:11;;;;;;;;;3.25;1.00;;;;;12.93;61.95;100991.72;5041588;28;45384;-71
2022/02/04 15:03:40;;;;;;;;;1.25;1.00;;;;;12.97;61.98;101036.19;5034800;28;45462;-71
2022/02/04 15:06:12;;;;;;;;;0.00;0.00;;;;;12.96;61.67;101036.25;5035546;28;45680;-71
2022/02/04 15:08:39;;;;;;;;;1.00;1.00;;;;;12.97;61.78;101046.91;5023483;28;46470;-71
2022/02/04 15:11:14;;;;;;;;;0.50;0.50;;;;;12.94;61.75;101048.84;5032354;28;45941;-71
2022/02/04 15:13:41;;;;;;;;;1.00;1.00;;;;;12.89;61.79;101040.09;5024535;28;45461;-70
2022/02/04 15:16:07;;;;;;;;;1.00;1.00;;;;;12.77;61.99;101044.97;5044892;28;45278;-71
2022/02/04 15:18:37;;;;;;;;;1.00;1.00;;;;;12.80;61.85;101054.72;5033743;28;46215;-70
2022/02/04 15:21:05;;;;;;;;;0.00;0.00;;;;;12.77;62.23;101063.72;5033066;28;46373;-71
2022/02/04 15:23:31;;;;;;;;;1.00;1.00;;;;;12.73;62.03;101066.56;5030618;28;45668;-71
2022/02/04 15:25:57;;;;;;;;;0.00;0.00;;;;;12.68;61.90;101079.25;5035024;28;45438;-71
2022/02/04 15:28:41;;;;;;;;;1.00;1.00;;;;;12.65;62.40;101087.41;5034537;28;47056;-71
2022/02/04 15:31:15;;;;;;;;;0.00;0.00;;;;;12.63;62.30;101086.56;5034758;28;45499;-70
2022/02/04 15:33:43;;;;;;;;;0.25;0.25;;;;;12.57;62.36;101085.00;5034609;28;45486;-71
2022/02/04 15:36:08;;;;;;;;;0.00;0.00;;;;;12.44;62.51;101078.31;5035429;28;45353;-71
2022/02/04 15:38:34;;;;;;;;;0.75;0.75;;;;;12.44;62.51;101099.75;5044337;28;45367;-71
2022/02/04 15:40:59;;;;;;;;;2.00;1.00;;;;;12.49;62.69;101113.84;5025946;28;45386;-71
2022/02/04 15:43:27;;;;;;;;;1.00;1.00;;;;;12.40;62.63;101123.94;5032034;28;45375;-70
2022/02/04 15:54:02;;;;;;;;;0.50;0.50;;;;;12.16;62.12;101148.84;5023736;28;45555;-71
2022/02/04 15:56:45;;;;;;;;;0.00;0.00;;;;;12.20;62.08;101159.41;5031355;28;45495;-71
2022/02/04 16:02:01;;;;;;;;;0.00;0.00;;;;;12.15;61.23;101168.50;5032191;28;45452;-70
2022/02/04 16:04:29;;;;;;;;;0.00;0.00;;;;;12.06;61.50;101158.97;5030683;28;45622;-71
2022/02/04 16:06:55;;;;;;;;;0.25;0.25;;;;;12.02;61.58;101160.00;5034478;28;45462;-71
2022/02/04 16:09:22;;;;;;;;;0.00;0.00;;;;;12.00;61.58;101180.56;5022199;28;45376;-69
2022/02/04 16:11:53;;;;;;;;;1.00;1.00;;;;;11.95;61.76;101182.53;5019526;28;46040;-67
2022/02/04 16:14:28;;;;;;;;;0.00;0.00;;;;;11.96;61.22;101190.50;5017122;28;45517;-69
2022/02/04 16:17:10;;;;;;;;;1.00;1.00;;;;;11.92;61.72;101190.63;5020116;28;45757;-70
2022/02/04 16:19:48;;;;;;;;;0.75;0.75;;;;;11.87;61.28;101196.94;5016369;28;46228;-69
2022/02/04 16:22:26;;;;;;;;;0.25;0.25;;;;;11.89;61.33;101198.72;5019219;28;45475;-69
2022/02/04 16:25:28;;;;;;;;;0.00;0.00;;;;;11.81;60.63;101199.84;5019579;28;45316;-69
2022/02/04 16:30:38;;;;;;;;;1.00;1.00;;;;;11.83;60.54;101213.16;5020364;28;45402;-70
2022/02/04 16:33:03;;;;;;;;;2.50;1.00;;;;;11.78;60.67;101217.78;5020228;28;45458;-70
2022/02/04 16:35:28;;;;;;;;;1.75;1.00;;;;;11.79;60.85;101222.19;5020391;28;46097;-70
2022/02/04 16:38:02;;;;;;;;;2.50;1.00;;;;;11.84;60.62;101236.31;5018871;28;45545;-70
2022/02/04 16:40:28;;;;;;;;;1.00;1.00;;;;;11.83;60.36;101230.09;5020224;28;45589;-70
2022/02/04 16:42:53;;;;;;;;;1.00;1.00;;;;;11.81;60.25;101233.72;5019693;28;45351;-70
2022/02/04 16:45:19;;;;;;;;;2.00;2.00;;;;;11.78;59.98;101242.72;5019889;28;45437;-70
2022/02/04 16:47:45;;;;;;;;;1.25;1.25;;;;;11.81;60.31;101250.66;5020072;28;45533;-70
2022/02/04 16:50:11;;;;;;;;;1.00;1.00;;;;;11.80;60.55;101256.06;5018083;28;46166;-70
2022/02/04 16:52:37;;;;;;;;;0.50;0.50;;;;;11.71;59.94;101246.50;5018141;28;45475;-70
2022/02/04 16:55:03;;;;;;;;;0.75;0.00;;;;;11.77;59.91;101259.69;5019827;28;45327;-70
2022/02/04 16:57:29;;;;;;;;;3.00;1.50;;;;;11.74;59.23;101278.47;5031119;28;45561;-70
2022/02/04 16:59:59;;;;;;;;;1.00;0.00;;;;;11.67;59.05;101271.56;5036211;28;46350;-70
2022/02/04 17:02:24;;;;;;;;;0.50;0.50;;;;;11.63;58.53;101277.94;5039119;28;45667;-70
2022/02/04 17:04:50;;;;;;;;;0.75;0.50;;;;;11.57;58.60;101294.13;5039857;28;45293;-70
2022/02/04 17:07:20;;;;;;;;;0.50;0.50;;;;;11.55;58.36;101299.53;5040062;28;45264;-70
2022/02/04 17:09:50;;;;;;;;;1.00;1.00;;;;;11.61;58.92;101306.50;5039708;28;46991;-70
2022/02/04 17:12:25;;;;;;;;;0.00;0.00;;;;;11.61;58.87;101306.50;5039676;28;45360;-66
2022/02/04 17:14:51;;;;;;;;;1.00;1.00;;;;;11.58;58.86;101315.50;5043103;28;45420;-64
2022/02/04 17:17:22;;;;;;;;;1.00;1.00;;;;;11.49;58.88;101316.63;5049632;28;45522;-65
2022/02/04 17:19:53;;;;;;;;;2.00;2.00;;;;;11.59;58.97;101335.06;5038644;28;46235;-66
2022/02/04 17:22:18;;;;;;;;;2.00;2.00;;;;;11.59;59.10;101340.41;5039764;28;45345;-66
2022/02/04 17:24:47;;;;;;;;;3.00;1.00;;;;;11.58;58.60;101344.03;5039196;28;45589;-66
2022/02/04 17:27:14;;;;;;;;;0.75;0.75;;;;;11.58;58.63;101352.94;5039536;28;45380;-66
2022/02/04 17:29:39;;;;;;;;;2.25;1.00;;;;;11.58;58.19;101352.06;5040426;28;46521;-66
2022/02/04 17:32:05;;;;;;;;;1.00;1.00;;;;;11.54;58.18;101351.22;5039396;28;45263;-65
2022/02/04 17:34:30;;;;;;;;;2.00;2.00;;;;;11.55;57.58;101360.16;5040233;28;45332;-65
2022/02/04 17:36:57;;;;;;;;;0.25;0.25;;;;;11.54;57.46;101363.75;5038704;28;45301;-64
2022/02/04 17:39:24;;;;;;;;;2.00;1.00;;;;;11.56;57.54;101369.91;5032844;28;46155;-66
2022/02/04 17:41:54;;;;;;;;;2.50;0.00;;;;;11.56;57.37;101372.59;5032347;28;45480;-65
2022/02/04 17:44:20;;;;;;;;;1.00;1.00;;;;;11.53;57.19;101381.59;5035664;28;45444;-65